Time;durP1;ratioP1;P1;durP2;ratioP2;P2;SDS_P1;SDS_P2;PMS_P1;PMS_P2;Temp;Humidity;BMP_temperature;BMP_pressure;BME280_temperature;BME280_humidity;BME280_pressure;Samples;Min_cycle;Max_cycle;Signal;HPM_P1;HPM_P2
2022/09/30 00:01:42;;;;;;;10.95;9.65;;;10.00;99.90;;;;;;4994340;28;20355;-68
2022/09/30 00:04:20;;;;;;;13.40;9.65;;;10.00;99.90;;;;;;5005234;28;20025;-68
2022/09/30 00:06:46;;;;;;;13.40;9.65;;;9.90;99.90;;;;;;5011223;28;20053;-69
2022/09/30 00:09:12;;;;;;;14.25;10.10;;;10.00;99.90;;;;;;5011485;28;20229;-69
2022/09/30 00:11:39;;;;;;;12.55;9.98;;;9.90;99.90;;;;;;4995944;28;20022;-69
2022/09/30 00:14:23;;;;;;;13.27;9.52;;;9.90;99.90;;;;;;5004977;28;20063;-69
2022/09/30 00:16:49;;;;;;;12.18;9.40;;;9.90;99.90;;;;;;5011509;28;20113;-68
2022/09/30 00:19:15;;;;;;;13.27;9.23;;;9.90;99.90;;;;;;5011952;28;20113;-69
2022/09/30 00:21:42;;;;;;;10.98;8.80;;;9.90;99.90;;;;;;4995722;28;20027;-69
2022/09/30 00:24:08;;;;;;;11.35;9.32;;;9.80;99.90;;;;;;5001787;28;20061;-70
2022/09/30 00:26:34;;;;;;;11.75;9.07;;;9.80;99.90;;;;;;4996773;28;20081;-69
2022/09/30 00:29:01;;;;;;;11.35;9.73;;;9.80;99.90;;;;;;5010470;28;20468;-71
2022/09/30 00:31:30;;;;;;;12.65;9.60;;;9.80;99.90;;;;;;5007796;28;20141;-71
2022/09/30 00:34:07;;;;;;;13.13;8.48;;;9.80;99.90;;;;;;5011265;28;20436;-69
2022/09/30 00:37:01;;;;;;;10.65;8.70;;;9.80;99.90;;;;;;4997504;28;20038;-70
2022/09/30 00:39:28;;;;;;;12.85;9.20;;;9.70;99.90;;;;;;4988886;28;20038;-69
2022/09/30 00:42:00;;;;;;;10.10;8.48;;;9.80;99.90;;;;;;4993748;28;20084;-69
2022/09/30 00:44:49;;;;;;;12.23;8.60;;;9.70;99.90;;;;;;5015642;28;20029;-69
2022/09/30 00:47:43;;;;;;;11.05;8.23;;;9.70;99.90;;;;;;4996232;28;20052;-68
2022/09/30 00:50:32;;;;;;;12.57;9.10;;;9.70;99.90;;;;;;5008118;28;20036;-69
2022/09/30 00:53:20;;;;;;;11.48;7.95;;;9.70;99.90;;;;;;4997749;28;20116;-69
2022/09/30 00:56:08;;;;;;;9.18;7.60;;;9.70;99.90;;;;;;5008610;28;20416;-70
2022/09/30 00:58:43;;;;;;;9.75;8.18;;;9.60;99.90;;;;;;5009727;28;20037;-69
2022/09/30 01:01:09;;;;;;;10.40;7.72;;;9.60;99.90;;;;;;4998058;28;20027;-69
2022/09/30 01:03:44;;;;;;;12.50;7.90;;;9.60;99.90;;;;;;5009559;28;20081;-69
2022/09/30 01:06:09;;;;;;;;;;;9.60;99.90;;;;;;5006239;28;20129;-68
2022/09/30 01:08:38;;;;;;;9.40;7.75;;;9.60;99.90;;;;;;5012668;28;20004;-68
2022/09/30 01:11:04;;;;;;;9.30;7.30;;;9.60;99.90;;;;;;5006907;28;20030;-68
2022/09/30 01:13:33;;;;;;;10.02;8.25;;;9.50;99.90;;;;;;4994330;28;20026;-68
2022/09/30 01:16:16;;;;;;;9.23;7.70;;;9.50;99.90;;;;;;5014654;28;20041;-68
2022/09/30 01:19:14;;;;;;;10.68;7.57;;;9.50;99.90;;;;;;5012763;28;20035;-69
2022/09/30 01:22:09;;;;;;;9.20;7.32;;;9.50;99.90;;;;;;5014145;28;20037;-69
2022/09/30 01:25:11;;;;;;;9.93;7.47;;;9.50;99.90;;;;;;5010490;28;20018;-69
2022/09/30 01:27:58;;;;;;;15.15;8.73;;;9.50;99.90;;;;;;4995502;28;20406;-69
2022/09/30 01:31:01;;;;;;;9.13;7.22;;;9.50;99.90;;;;;;4995348;28;20039;-68
2022/09/30 01:33:36;;;;;;;10.13;8.00;;;9.50;99.90;;;;;;4995804;28;20050;-67
2022/09/30 01:36:02;;;;;;;;;;;9.50;99.90;;;;;;5002388;28;20029;-68
2022/09/30 01:38:33;;;;;;;9.35;7.47;;;9.40;99.90;;;;;;5015164;28;20345;-68
2022/09/30 01:41:07;;;;;;;8.23;7.30;;;9.40;99.90;;;;;;5013548;28;20412;-69
2022/09/30 01:43:52;;;;;;;9.35;7.00;;;9.40;99.90;;;;;;5014332;28;20053;-68
2022/09/30 01:46:35;;;;;;;8.98;7.22;;;9.40;99.90;;;;;;5005403;28;20038;-68
2022/09/30 01:49:14;;;;;;;8.88;6.85;;;9.40;99.90;;;;;;5006486;28;20355;-68
2022/09/30 01:52:26;;;;;;;8.88;7.25;;;9.30;99.90;;;;;;5001601;28;20036;-67
2022/09/30 01:55:06;;;;;;;8.70;7.38;;;9.30;99.90;;;;;;4958058;28;20645;-68
2022/09/30 01:57:38;;;;;;;9.35;7.72;;;9.30;99.90;;;;;;4995244;28;20041;-68
2022/09/30 02:00:08;;;;;;;10.10;7.95;;;9.30;99.90;;;;;;4977504;28;20038;-68
2022/09/30 02:02:43;;;;;;;9.38;7.47;;;9.30;99.90;;;;;;5007340;28;20030;-68
2022/09/30 02:05:16;;;;;;;10.27;7.55;;;9.20;99.90;;;;;;5008427;28;20038;-68
2022/09/30 02:07:50;;;;;;;10.13;8.18;;;9.20;99.90;;;;;;5002252;28;20147;-68
2022/09/30 02:10:26;;;;;;;10.52;8.50;;;9.30;99.90;;;;;;5009797;28;20040;-68
2022/09/30 02:12:57;;;;;;;11.63;8.07;;;9.30;99.90;;;;;;5004017;28;20061;-68
2022/09/30 02:15:29;;;;;;;9.52;8.10;;;9.20;99.90;;;;;;5013222;28;20022;-68
2022/09/30 02:18:01;;;;;;;12.10;8.10;;;9.20;99.90;;;;;;4994962;28;20077;-68
2022/09/30 02:20:31;;;;;;;11.50;7.90;;;9.20;99.90;;;;;;5009813;28;20113;-68
2022/09/30 02:23:07;;;;;;;11.93;8.18;;;9.20;99.90;;;;;;4994660;28;20038;-69
2022/09/30 02:25:41;;;;;;;11.77;8.00;;;9.20;99.90;;;;;;5001987;28;20031;-68
2022/09/30 02:28:11;;;;;;;10.95;8.18;;;9.20;99.90;;;;;;4994634;28;20433;-68
2022/09/30 02:30:42;;;;;;;8.05;6.65;;;9.20;99.90;;;;;;4998378;28;20042;-68
2022/09/30 02:33:16;;;;;;;11.48;7.57;;;9.20;99.90;;;;;;4977117;28;20478;-68
2022/09/30 02:35:53;;;;;;;10.25;7.68;;;9.10;99.90;;;;;;4982105;28;20412;-68
2022/09/30 02:38:28;;;;;;;8.82;7.05;;;9.10;99.90;;;;;;4994538;28;20386;-68
2022/09/30 02:41:03;;;;;;;10.73;7.88;;;9.10;99.90;;;;;;5001552;28;20057;-69
2022/09/30 02:43:30;;;;;;;10.63;7.70;;;9.10;99.90;;;;;;5012290;28;20397;-68
2022/09/30 02:46:22;;;;;;;9.23;7.72;;;9.10;99.90;;;;;;5011938;28;20041;-68
2022/09/30 02:49:16;;;;;;;9.25;7.82;;;9.00;99.90;;;;;;5013560;28;20374;-68
2022/09/30 02:52:12;;;;;;;10.20;7.15;;;9.00;99.90;;;;;;4994402;28;20030;-68
2022/09/30 02:55:15;;;;;;;8.98;7.03;;;9.00;99.90;;;;;;4998222;28;20441;-68
2022/09/30 02:58:19;;;;;;;11.90;7.45;;;9.00;99.90;;;;;;4994760;28;20049;-68
2022/09/30 03:00:45;;;;;;;9.32;7.13;;;9.00;99.90;;;;;;4962612;28;20381;-68
2022/09/30 03:03:31;;;;;;;9.23;6.88;;;9.00;99.90;;;;;;5012532;28;20030;-69
2022/09/30 03:05:57;;;;;;;9.25;7.00;;;9.00;99.90;;;;;;5010518;28;20516;-68
2022/09/30 03:08:22;;;;;;;9.95;6.68;;;9.00;99.90;;;;;;5002996;28;20034;-69
2022/09/30 03:10:50;;;;;;;9.45;7.35;;;9.00;99.90;;;;;;5002282;28;20418;-68
2022/09/30 03:13:22;;;;;;;8.82;7.18;;;9.00;99.90;;;;;;5009093;28;20031;-68
2022/09/30 03:16:02;;;;;;;10.15;7.38;;;9.00;99.90;;;;;;5011020;28;20029;-68
2022/09/30 03:18:42;;;;;;;9.10;7.25;;;9.00;99.90;;;;;;5003014;28;20057;-68
2022/09/30 03:21:46;;;;;;;12.25;7.57;;;9.00;99.90;;;;;;5012072;28;20485;-68
2022/09/30 03:24:27;;;;;;;10.00;7.07;;;9.00;99.90;;;;;;5013165;28;20378;-68
2022/09/30 03:27:09;;;;;;;9.55;7.15;;;8.90;99.90;;;;;;5011288;28;20493;-68
2022/09/30 03:29:48;;;;;;;9.40;7.20;;;8.90;99.90;;;;;;5008101;28;20110;-68
2022/09/30 03:32:36;;;;;;;9.38;7.22;;;8.90;99.90;;;;;;5004230;28;20517;-69
2022/09/30 03:35:29;;;;;;;9.00;6.78;;;8.90;99.90;;;;;;5013186;28;20030;-69
2022/09/30 03:38:34;;;;;;;9.45;7.18;;;8.90;99.90;;;;;;5012102;28;20517;-69
2022/09/30 03:41:12;;;;;;;11.02;7.47;;;8.90;99.90;;;;;;5010541;28;20030;-68
2022/09/30 03:43:49;;;;;;;11.43;7.10;;;8.90;99.90;;;;;;4993532;28;20029;-68
2022/09/30 03:46:23;;;;;;;8.93;7.25;;;8.90;99.90;;;;;;5004030;28;20104;-68
2022/09/30 03:48:53;;;;;;;10.48;7.75;;;8.80;99.90;;;;;;4993609;28;20041;-68
2022/09/30 03:51:20;;;;;;;10.07;8.25;;;8.80;99.90;;;;;;4993358;28;20033;-68
2022/09/30 03:53:46;;;;;;;10.60;7.88;;;8.80;99.90;;;;;;4993078;28;20038;-68
2022/09/30 03:56:13;;;;;;;8.63;6.90;;;8.80;99.90;;;;;;4992725;28;20128;-68
2022/09/30 03:58:43;;;;;;;10.23;7.68;;;8.80;99.90;;;;;;4992603;28;20543;-68
2022/09/30 04:01:20;;;;;;;9.82;6.90;;;8.70;99.90;;;;;;4992729;28;20045;-68
2022/09/30 04:03:53;;;;;;;9.50;7.05;;;8.70;99.90;;;;;;4992598;28;20022;-68
2022/09/30 04:06:24;;;;;;;10.77;7.40;;;8.70;99.90;;;;;;5003870;28;20061;-68
2022/09/30 04:08:52;;;;;;;7.78;6.75;;;8.70;99.90;;;;;;5001774;28;20044;-68
2022/09/30 04:11:18;;;;;;;10.27;7.13;;;8.70;99.90;;;;;;4990681;28;20066;-68
2022/09/30 04:13:45;;;;;;;9.35;7.13;;;8.70;99.90;;;;;;5011787;28;20060;-68
2022/09/30 04:16:11;;;;;;;9.57;7.10;;;8.70;99.90;;;;;;5010747;28;20053;-67
2022/09/30 04:18:38;;;;;;;9.77;7.32;;;8.70;99.90;;;;;;4999913;28;20054;-68
2022/09/30 04:21:09;;;;;;;11.18;7.55;;;8.70;99.90;;;;;;4995913;28;20025;-68
2022/09/30 04:23:36;;;;;;;10.48;7.45;;;8.70;99.90;;;;;;4992618;28;20639;-67
2022/09/30 04:26:04;;;;;;;7.63;6.45;;;8.70;99.90;;;;;;4995738;28;20021;-68
2022/09/30 04:28:30;;;;;;;10.27;7.40;;;8.60;99.90;;;;;;4992883;28;20042;-67
2022/09/30 04:30:58;;;;;;;10.73;7.80;;;8.60;99.90;;;;;;5001695;28;20053;-67
2022/09/30 04:33:24;;;;;;;11.30;8.07;;;8.60;99.90;;;;;;4984518;28;20535;-67
2022/09/30 04:35:53;;;;;;;10.20;7.50;;;8.60;99.90;;;;;;5002931;28;20117;-66
2022/09/30 04:38:19;;;;;;;10.80;7.82;;;8.60;99.90;;;;;;4993868;28;20076;-68
2022/09/30 04:40:45;;;;;;;10.30;7.60;;;8.60;99.90;;;;;;5003482;28;20030;-68
2022/09/30 04:43:10;;;;;;;9.85;7.88;;;8.60;99.90;;;;;;4992819;28;20018;-68
2022/09/30 04:45:37;;;;;;;8.88;6.78;;;8.60;99.90;;;;;;5011922;28;20169;-68
2022/09/30 04:48:03;;;;;;;8.82;6.93;;;8.60;99.90;;;;;;5006173;28;20052;-68
2022/09/30 04:50:30;;;;;;;10.60;8.10;;;8.60;99.90;;;;;;4995339;28;20026;-67
2022/09/30 04:52:56;;;;;;;9.60;8.18;;;8.50;99.90;;;;;;4995123;28;20030;-68
2022/09/30 04:55:22;;;;;;;10.63;8.13;;;8.50;99.90;;;;;;5010993;28;20046;-68
2022/09/30 04:57:48;;;;;;;12.68;8.80;;;8.50;99.90;;;;;;5008758;28;20025;-68
2022/09/30 05:00:13;;;;;;;10.27;7.80;;;8.60;99.90;;;;;;5010331;28;20097;-68
2022/09/30 05:02:42;;;;;;;10.45;8.35;;;8.50;99.90;;;;;;5000767;28;20520;-68
2022/09/30 05:05:08;;;;;;;11.18;8.10;;;8.60;99.90;;;;;;5010818;28;20072;-68
2022/09/30 05:07:34;;;;;;;9.13;8.15;;;8.60;99.90;;;;;;5009798;28;20033;-68
2022/09/30 05:09:59;;;;;;;11.00;8.02;;;8.50;99.90;;;;;;5011756;28;20018;-68
2022/09/30 05:12:25;;;;;;;14.38;9.15;;;8.50;99.90;;;;;;5003071;28;20413;-68
2022/09/30 05:14:51;;;;;;;11.07;8.20;;;8.50;99.90;;;;;;4992282;28;20369;-68
2022/09/30 05:17:17;;;;;;;10.63;8.32;;;8.50;99.90;;;;;;5007001;28;20030;-69
2022/09/30 05:19:42;;;;;;;10.52;7.93;;;8.50;99.90;;;;;;4994192;28;20031;-68
2022/09/30 05:22:08;;;;;;;12.40;8.43;;;8.60;99.90;;;;;;4975743;28;20033;-68
2022/09/30 05:24:33;;;;;;;12.70;8.40;;;8.50;99.90;;;;;;4997307;28;20033;-69
2022/09/30 05:26:59;;;;;;;10.40;8.50;;;8.50;99.90;;;;;;5008133;28;20026;-68
2022/09/30 05:29:25;;;;;;;10.35;8.60;;;8.50;99.90;;;;;;4997759;28;20029;-68
2022/09/30 05:31:51;;;;;;;12.23;8.45;;;8.50;99.90;;;;;;5012744;28;20034;-68
2022/09/30 05:34:16;;;;;;;10.63;7.35;;;8.50;99.90;;;;;;4999853;28;20022;-68
2022/09/30 05:36:43;;;;;;;11.98;8.10;;;8.50;99.90;;;;;;5012857;28;20287;-68
2022/09/30 05:39:10;;;;;;;11.40;8.23;;;8.50;99.90;;;;;;5008349;28;20100;-68
2022/09/30 05:41:36;;;;;;;12.25;9.07;;;8.50;99.90;;;;;;5014792;28;20084;-68
2022/09/30 05:44:03;;;;;;;10.93;8.52;;;8.50;99.90;;;;;;5008783;28;20032;-68
2022/09/30 05:46:28;;;;;;;11.55;8.57;;;8.60;99.90;;;;;;5013964;28;20034;-68
2022/09/30 05:48:54;;;;;;;10.80;8.57;;;8.60;99.90;;;;;;4996877;28;20077;-68
2022/09/30 05:51:20;;;;;;;11.57;8.70;;;8.60;99.90;;;;;;5005960;28;20377;-67
2022/09/30 05:53:46;;;;;;;13.80;8.55;;;8.60;99.90;;;;;;4997467;28;20038;-67
2022/09/30 05:56:12;;;;;;;12.95;9.55;;;8.60;99.90;;;;;;5004437;28;20046;-69
2022/09/30 05:58:40;;;;;;;14.20;8.70;;;8.70;99.90;;;;;;4998997;28;20049;-68
2022/09/30 06:01:09;;;;;;;16.45;8.80;;;8.70;99.90;;;;;;5010869;28;20488;-68
2022/09/30 06:03:35;;;;;;;12.90;8.80;;;8.70;99.90;;;;;;4999389;28;20034;-68
2022/09/30 06:06:01;;;;;;;16.00;9.43;;;8.70;99.90;;;;;;5012205;28;20029;-68
2022/09/30 06:08:27;;;;;;;16.42;10.15;;;8.70;99.90;;;;;;5000351;28;20034;-68
2022/09/30 06:10:53;;;;;;;13.13;9.07;;;8.70;99.90;;;;;;4999199;28;20156;-68
2022/09/30 06:13:20;;;;;;;14.48;9.23;;;8.80;99.90;;;;;;5000520;28;20100;-67
2022/09/30 06:15:56;;;;;;;18.75;10.13;;;8.80;99.90;;;;;;5001844;28;20104;-70
2022/09/30 06:18:22;;;;;;;18.00;9.35;;;8.80;99.90;;;;;;5005115;28;20382;-70
2022/09/30 06:20:47;;;;;;;16.90;9.93;;;8.80;99.90;;;;;;4982544;28;20034;-71
2022/09/30 06:23:13;;;;;;;16.30;9.48;;;8.80;99.90;;;;;;5002962;28;20045;-71
2022/09/30 06:25:38;;;;;;;15.30;9.95;;;8.80;99.90;;;;;;4994769;28;20497;-70
2022/09/30 06:28:04;;;;;;;15.50;9.70;;;8.90;99.90;;;;;;5002611;28;20164;-70
2022/09/30 06:30:30;;;;;;;15.15;10.60;;;8.90;99.90;;;;;;5013790;28;20037;-71
2022/09/30 06:32:56;;;;;;;13.52;9.65;;;8.90;99.90;;;;;;5008781;28;20026;-71
2022/09/30 06:35:23;;;;;;;14.23;10.10;;;8.90;99.90;;;;;;5011913;28;20068;-70
2022/09/30 06:37:52;;;;;;;13.63;9.63;;;9.00;99.90;;;;;;4996566;28;20026;-70
2022/09/30 06:40:20;;;;;;;13.30;9.85;;;9.00;99.90;;;;;;5014135;28;20039;-70
2022/09/30 06:42:46;;;;;;;13.98;9.57;;;9.00;99.90;;;;;;5007173;28;20022;-70
2022/09/30 06:45:12;;;;;;;15.63;10.48;;;9.10;99.90;;;;;;4998998;28;20561;-69
2022/09/30 06:47:38;;;;;;;16.50;10.45;;;9.10;99.90;;;;;;5008004;28;20133;-69
2022/09/30 06:50:04;;;;;;;19.48;11.07;;;9.20;99.90;;;;;;5013654;28;20041;-69
2022/09/30 06:52:30;;;;;;;13.30;9.63;;;9.20;99.90;;;;;;5012710;28;20026;-71
2022/09/30 06:54:55;;;;;;;11.88;8.77;;;9.20;99.90;;;;;;5012929;28;20061;-69
2022/09/30 06:57:23;;;;;;;11.48;9.23;;;9.30;99.90;;;;;;5012669;28;20635;-69
2022/09/30 06:59:49;;;;;;;13.77;10.13;;;9.40;99.90;;;;;;5013272;28;20097;-70
2022/09/30 07:02:16;;;;;;;13.38;9.75;;;9.40;99.90;;;;;;5012031;28;20092;-67
2022/09/30 07:04:41;;;;;;;13.82;9.90;;;9.50;99.90;;;;;;4994840;28;20026;-69
2022/09/30 07:07:07;;;;;;;14.48;9.38;;;9.50;99.90;;;;;;5012277;28;20124;-70
2022/09/30 07:09:32;;;;;;;16.13;9.25;;;9.60;99.90;;;;;;5012897;28;20029;-70
2022/09/30 07:11:58;;;;;;;14.98;10.70;;;9.70;99.90;;;;;;5011517;28;20504;-70
2022/09/30 07:14:24;;;;;;;13.35;8.57;;;9.70;99.90;;;;;;5012565;28;20029;-70
2022/09/30 07:16:51;;;;;;;12.40;9.13;;;9.80;99.90;;;;;;5010353;28;20084;-70
2022/09/30 07:19:21;;;;;;;15.68;10.52;;;9.90;99.90;;;;;;5011985;28;20465;-70
2022/09/30 07:21:50;;;;;;;14.90;9.80;;;9.90;99.90;;;;;;5011882;28;20045;-70
2022/09/30 07:24:17;;;;;;;12.48;9.73;;;10.00;99.90;;;;;;5011429;28;20404;-70
2022/09/30 07:26:44;;;;;;;14.05;9.93;;;10.00;99.90;;;;;;5010945;28;20041;-70
2022/09/30 07:29:12;;;;;;;15.88;9.95;;;10.10;99.90;;;;;;5005426;28;20485;-70
2022/09/30 07:31:38;;;;;;;13.85;10.27;;;10.20;99.90;;;;;;4993523;28;20026;-72
2022/09/30 07:34:06;;;;;;;11.98;10.52;;;10.20;99.90;;;;;;5005105;28;20068;-70
2022/09/30 07:36:33;;;;;;;14.20;9.82;;;10.30;99.90;;;;;;4994409;28;20022;-70
2022/09/30 07:39:04;;;;;;;13.52;9.68;;;10.30;99.90;;;;;;4996173;28;20048;-70
2022/09/30 07:41:30;;;;;;;15.70;10.02;;;10.50;99.90;;;;;;5011064;28;20483;-70
2022/09/30 07:44:00;;;;;;;14.23;10.38;;;10.50;99.90;;;;;;5010879;28;20053;-70
2022/09/30 07:46:31;;;;;;;17.38;10.82;;;10.60;99.90;;;;;;5011500;28;20060;-71
2022/09/30 07:49:05;;;;;;;15.23;10.00;;;10.70;99.90;;;;;;5004108;28;20141;-71
2022/09/30 07:51:39;;;;;;;14.75;10.18;;;10.70;99.90;;;;;;5012266;28;20030;-71
2022/09/30 07:54:26;;;;;;;13.57;10.88;;;10.80;99.90;;;;;;5005243;28;20096;-71
2022/09/30 07:56:52;;;;;;;16.63;11.27;;;10.90;99.90;;;;;;5010720;28;20054;-70
2022/09/30 07:59:18;;;;;;;13.32;9.82;;;11.00;99.90;;;;;;4989708;28;20073;-70
2022/09/30 08:01:44;;;;;;;16.20;10.57;;;11.00;99.90;;;;;;5004090;28;20026;-70
2022/09/30 08:04:11;;;;;;;14.02;10.18;;;11.10;99.90;;;;;;5004352;28;20030;-70
2022/09/30 08:06:46;;;;;;;13.25;10.82;;;11.20;99.90;;;;;;5001965;28;20030;-70
2022/09/30 08:09:15;;;;;;;13.68;11.30;;;11.30;99.90;;;;;;5009117;28;20613;-71
2022/09/30 08:11:41;;;;;;;14.57;11.32;;;11.40;99.90;;;;;;5011167;28;20120;-70
2022/09/30 08:14:12;;;;;;;16.15;10.88;;;11.40;99.90;;;;;;5011614;28;20109;-70
2022/09/30 08:16:38;;;;;;;14.73;10.55;;;11.50;99.90;;;;;;5009417;28;20037;-71
2022/09/30 08:19:03;;;;;;;15.75;10.95;;;11.60;99.90;;;;;;4992819;28;20022;-71
2022/09/30 08:21:29;;;;;;;15.48;10.52;;;11.70;99.90;;;;;;5011248;28;20061;-71
2022/09/30 08:23:56;;;;;;;18.05;12.20;;;11.80;99.90;;;;;;4994239;28;20026;-71
2022/09/30 08:26:22;;;;;;;14.30;11.30;;;11.90;99.90;;;;;;5010666;28;20457;-71
2022/09/30 08:28:47;;;;;;;17.52;11.40;;;11.90;99.90;;;;;;4995567;28;20041;-71
2022/09/30 08:31:19;;;;;;;14.70;11.55;;;12.00;99.90;;;;;;5009152;28;20034;-71
2022/09/30 08:33:45;;;;;;;14.10;11.07;;;12.10;99.90;;;;;;5003906;28;20045;-71
2022/09/30 08:36:21;;;;;;;15.90;10.75;;;12.10;99.90;;;;;;5011741;28;20032;-71
2022/09/30 08:38:48;;;;;;;12.65;10.38;;;12.20;99.90;;;;;;5004476;28;20500;-71
2022/09/30 08:41:32;;;;;;;15.82;11.25;;;12.20;99.90;;;;;;5012126;28;20030;-74
2022/09/30 08:44:34;;;;;;;15.80;11.30;;;12.30;99.90;;;;;;4993493;28;20551;-72
2022/09/30 08:47:29;;;;;;;17.58;11.40;;;12.40;99.90;;;;;;4996071;28;20037;-71
2022/09/30 08:50:14;;;;;;;;;;;12.50;99.90;;;;;;4993262;28;20501;-72
2022/09/30 08:52:45;;;;;;;16.77;9.27;;;12.50;99.90;;;;;;4996709;28;19968;-72
2022/09/30 08:55:25;;;;;;;16.10;10.80;;;12.60;99.90;;;;;;4992419;28;20056;-72
2022/09/30 08:57:54;;;;;;;14.07;10.02;;;12.70;99.90;;;;;;4997221;28;20030;-72
2022/09/30 09:00:21;;;;;;;13.15;9.68;;;12.80;99.90;;;;;;5003300;28;20924;-71
2022/09/30 09:02:58;;;;;;;14.68;10.82;;;12.90;99.90;;;;;;5013326;28;20053;-73
2022/09/30 09:06:15;;;;;;;14.13;9.80;;;13.00;99.90;;;;;;5012754;28;20037;-73
2022/09/30 09:08:47;;;;;;;14.18;9.95;;;13.10;99.90;;;;;;4968875;28;20078;-72
2022/09/30 09:11:34;;;;;;;14.32;9.10;;;13.20;99.90;;;;;;4996053;28;20113;-72
2022/09/30 09:14:35;;;;;;;13.85;9.85;;;13.20;99.90;;;;;;5013800;28;20476;-72
2022/09/30 09:17:24;;;;;;;12.45;8.98;;;13.30;99.80;;;;;;5001335;28;20038;-72
2022/09/30 09:19:50;;;;;;;13.45;8.60;;;13.40;99.70;;;;;;5008993;28;20065;-71
2022/09/30 09:22:16;;;;;;;13.75;9.85;;;13.50;99.70;;;;;;5011399;28;20555;-72
2022/09/30 09:24:46;;;;;;;11.82;8.95;;;13.60;99.60;;;;;;5011325;28;20037;-72
2022/09/30 09:27:23;;;;;;;12.38;8.65;;;13.70;99.40;;;;;;5020587;28;20064;-71
2022/09/30 09:30:06;;;;;;;14.13;7.95;;;13.70;99.30;;;;;;4999053;28;20650;-72
2022/09/30 09:32:33;;;;;;;11.45;7.72;;;13.80;99.20;;;;;;4990020;28;20048;-71
2022/09/30 09:35:28;;;;;;;11.18;8.10;;;13.90;99.20;;;;;;4996955;28;20030;-71
2022/09/30 09:38:24;;;;;;;8.38;7.03;;;14.00;99.10;;;;;;5001360;28;20525;-71
2022/09/30 09:41:13;;;;;;;10.52;7.93;;;14.10;98.90;;;;;;5011119;28;20121;-71
2022/09/30 09:43:49;;;;;;;10.65;8.23;;;14.10;98.80;;;;;;5013998;28;20041;-72
2022/09/30 09:46:29;;;;;;;10.25;7.25;;;14.20;98.70;;;;;;4996866;28;20025;-72
2022/09/30 09:49:26;;;;;;;9.40;7.60;;;14.30;98.40;;;;;;5000844;28;20057;-72
2022/09/30 09:51:59;;;;;;;11.18;7.55;;;14.40;98.40;;;;;;4995499;28;20030;-71
2022/09/30 09:54:30;;;;;;;9.73;6.80;;;14.30;98.10;;;;;;5007053;28;20046;-70
2022/09/30 09:57:03;;;;;;;8.38;6.70;;;14.50;98.00;;;;;;5012632;28;20034;-70
2022/09/30 09:59:30;;;;;;;10.40;7.70;;;14.50;97.90;;;;;;5007956;28;20047;-71
2022/09/30 10:01:55;;;;;;;9.23;6.97;;;14.50;98.00;;;;;;5012873;28;20079;-75
2022/09/30 10:04:28;;;;;;;10.55;7.57;;;14.60;97.60;;;;;;5012785;28;20034;-69
2022/09/30 10:07:12;;;;;;;8.82;7.05;;;14.70;97.50;;;;;;5014747;28;20034;-71
2022/09/30 10:09:40;;;;;;;11.32;7.07;;;14.70;97.50;;;;;;4996175;28;20029;-71
2022/09/30 10:12:05;;;;;;;10.05;6.85;;;14.80;97.40;;;;;;5014451;28;20034;-71
2022/09/30 10:14:44;;;;;;;10.07;6.82;;;14.90;97.30;;;;;;5012147;28;20121;-72
2022/09/30 10:17:17;;;;;;;8.77;7.05;;;14.80;97.10;;;;;;5014337;28;20107;-69
2022/09/30 10:19:53;;;;;;;10.35;7.53;;;14.90;97.10;;;;;;5013723;28;20033;-69
2022/09/30 10:22:26;;;;;;;10.20;6.47;;;15.00;96.90;;;;;;5013289;28;20030;-69
2022/09/30 10:25:07;;;;;;;8.52;6.55;;;15.10;96.80;;;;;;4996387;28;20172;-69
2022/09/30 10:27:33;;;;;;;8.43;7.00;;;15.20;96.80;;;;;;5000543;28;20464;-68
2022/09/30 10:29:59;;;;;;;7.25;6.38;;;15.20;96.60;;;;;;5003118;28;20118;-68
2022/09/30 10:32:27;;;;;;;7.90;6.15;;;15.20;96.40;;;;;;5002691;28;20117;-68
2022/09/30 10:35:03;;;;;;;8.25;6.00;;;15.30;96.30;;;;;;4979152;28;20659;-68
2022/09/30 10:37:28;;;;;;;7.93;5.80;;;15.40;96.30;;;;;;5012916;28;20117;-68
2022/09/30 10:40:01;;;;;;;9.90;6.68;;;15.40;96.10;;;;;;4996817;28;20101;-68
2022/09/30 10:42:31;;;;;;;7.80;6.00;;;15.50;96.10;;;;;;5012442;28;20034;-68
2022/09/30 10:45:03;;;;;;;7.50;5.78;;;15.60;95.90;;;;;;5012119;28;20026;-68
2022/09/30 10:47:29;;;;;;;9.20;5.65;;;15.60;95.80;;;;;;5005043;28;20121;-68
2022/09/30 10:50:28;;;;;;;6.13;5.15;;;15.70;95.70;;;;;;4998877;28;20138;-67
2022/09/30 10:53:10;;;;;;;8.15;5.65;;;15.70;95.70;;;;;;4959723;28;20041;-69
2022/09/30 10:55:44;;;;;;;6.38;5.47;;;15.70;95.50;;;;;;4981476;28;20137;-68
2022/09/30 10:58:35;;;;;;;6.35;4.63;;;15.80;95.20;;;;;;5008163;28;20045;-69
2022/09/30 11:01:34;;;;;;;8.23;5.70;;;15.80;95.40;;;;;;5013619;28;20033;-69
2022/09/30 11:04:21;;;;;;;8.32;5.93;;;15.80;95.40;;;;;;5009821;28;20038;-68
2022/09/30 11:06:50;;;;;;;8.10;5.90;;;15.80;95.30;;;;;;5012973;28;20112;-68
2022/09/30 11:09:42;;;;;;;6.68;5.13;;;15.90;95.20;;;;;;5010897;28;20038;-68
2022/09/30 11:12:38;;;;;;;6.22;4.22;;;16.00;95.30;;;;;;5004756;28;20101;-68
2022/09/30 11:15:30;;;;;;;5.20;4.05;;;16.10;94.80;;;;;;4997433;28;20042;-68
2022/09/30 11:18:15;;;;;;;6.18;3.97;;;16.10;94.40;;;;;;4993826;28;20153;-68
2022/09/30 11:20:46;;;;;;;6.07;3.47;;;16.20;94.60;;;;;;4994285;28;20032;-68
2022/09/30 11:23:21;;;;;;;5.10;3.50;;;16.30;94.40;;;;;;5007133;28;20026;-68
2022/09/30 11:26:18;;;;;;;4.18;3.17;;;16.30;94.00;;;;;;5005461;28;20038;-68
2022/09/30 11:29:04;;;;;;;5.50;2.83;;;16.40;94.00;;;;;;4974693;28;20046;-68
2022/09/30 11:32:12;;;;;;;4.00;3.08;;;16.40;94.00;;;;;;4962056;28;20425;-67
2022/09/30 11:34:47;;;;;;;7.22;2.88;;;16.50;93.80;;;;;;4902457;29;20032;-68
2022/09/30 11:37:20;;;;;;;6.55;3.65;;;16.60;93.70;;;;;;4981473;28;20805;-67
2022/09/30 11:40:20;;;;;;;5.63;3.13;;;16.60;93.50;;;;;;5011063;28;20164;-67
2022/09/30 11:43:02;;;;;;;4.25;3.10;;;16.70;93.40;;;;;;5010573;28;20130;-68
2022/09/30 11:45:44;;;;;;;4.57;3.00;;;16.70;93.00;;;;;;4997709;28;20038;-68
2022/09/30 11:48:34;;;;;;;5.75;3.17;;;16.70;93.00;;;;;;5012020;28;20034;-68
2022/09/30 11:51:08;;;;;;;4.78;3.33;;;16.80;93.10;;;;;;5006389;28;20038;-68
2022/09/30 11:54:03;;;;;;;5.55;2.80;;;16.90;92.90;;;;;;5011436;28;20038;-68
2022/09/30 11:56:48;;;;;;;7.43;2.90;;;17.00;93.10;;;;;;4993060;28;20104;-68
2022/09/30 11:59:18;;;;;;;;;;;17.00;92.70;;;;;;5004854;28;20027;-68
2022/09/30 12:01:48;;;;;;;4.38;2.80;;;17.10;93.30;;;;;;5005805;28;19906;-68
2022/09/30 12:04:22;;;;;;;5.68;3.08;;;17.10;92.30;;;;;;5010975;28;20037;-68
2022/09/30 12:07:00;;;;;;;5.20;2.50;;;17.10;91.90;;;;;;5003703;28;20041;-68
2022/09/30 12:09:39;;;;;;;3.20;2.67;;;17.10;91.80;;;;;;4992770;28;20034;-68
2022/09/30 12:12:09;;;;;;;4.18;2.67;;;17.10;91.60;;;;;;5011549;28;20030;-68
2022/09/30 12:14:56;;;;;;;5.78;2.83;;;17.20;91.70;;;;;;5004620;28;20030;-69
2022/09/30 12:17:40;;;;;;;3.92;2.50;;;17.20;91.80;;;;;;5001783;28;20072;-68
2022/09/30 12:20:51;;;;;;;3.88;2.85;;;17.20;91.60;;;;;;4998794;28;20026;-69
2022/09/30 12:23:39;;;;;;;5.00;2.85;;;17.30;91.30;;;;;;4997375;28;20058;-70
2022/09/30 12:26:06;;;;;;;7.10;2.40;;;17.30;91.20;;;;;;5007544;28;20496;-69
2022/09/30 12:31:50;;;;;;;4.63;3.05;;;17.30;91.00;;;;;;5011551;28;20022;-68
2022/09/30 12:34:49;;;;;;;6.03;2.95;;;17.40;90.90;;;;;;5007219;28;20092;-68
2022/09/30 12:37:19;;;;;;;5.00;2.58;;;17.40;90.80;;;;;;5000770;28;20117;-68
2022/09/30 12:40:23;;;;;;;4.70;2.50;;;17.40;90.50;;;;;;5002893;28;20058;-68
2022/09/30 12:43:29;;;;;;;4.53;2.30;;;17.40;90.40;;;;;;5015149;28;20022;-69
2022/09/30 12:46:14;;;;;;;3.50;2.55;;;17.50;90.60;;;;;;5008806;28;20072;-68
2022/09/30 12:48:49;;;;;;;4.00;2.47;;;17.50;90.40;;;;;;5004582;28;20034;-68
2022/09/30 12:51:32;;;;;;;4.38;3.05;;;17.60;90.10;;;;;;5009076;28;20034;-68
2022/09/30 12:54:20;;;;;;;4.68;2.90;;;17.60;90.20;;;;;;4995054;28;20038;-68
2022/09/30 12:56:54;;;;;;;6.03;2.67;;;17.70;90.40;;;;;;4999769;28;20456;-68
2022/09/30 12:59:26;;;;;;;5.63;2.58;;;17.70;90.20;;;;;;5008983;28;20038;-68
2022/09/30 13:01:51;;;;;;;4.47;3.17;;;17.80;90.10;;;;;;4996317;28;20030;-68
2022/09/30 13:04:32;;;;;;;6.78;2.40;;;17.80;89.50;;;;;;5006691;28;20087;-68
2022/09/30 13:07:00;;;;;;;5.00;2.60;;;17.90;89.20;;;;;;5008518;28;20169;-69
2022/09/30 13:09:33;;;;;;;2.47;2.00;;;17.90;89.00;;;;;;5002724;28;20038;-69
2022/09/30 13:12:00;;;;;;;3.35;2.58;;;18.00;88.60;;;;;;5012956;28;20026;-68
2022/09/30 13:14:33;;;;;;;5.10;2.20;;;17.90;87.90;;;;;;5007853;28;20026;-69
2022/09/30 13:17:04;;;;;;;8.07;4.47;;;17.90;88.40;;;;;;5008914;28;20057;-68
2022/09/30 13:19:46;;;;;;;5.93;3.05;;;17.90;88.30;;;;;;5005957;28;20052;-68
2022/09/30 13:22:18;;;;;;;5.35;3.38;;;17.90;88.20;;;;;;4999596;28;20022;-68
2022/09/30 13:25:05;;;;;;;4.40;3.20;;;17.90;88.30;;;;;;5003842;28;20033;-68
2022/09/30 13:27:49;;;;;;;4.75;2.90;;;17.90;87.60;;;;;;5008461;28;20038;-69